Time;durP1;ratioP1;P1;durP2;ratioP2;P2;SDS_P1;SDS_P2;PMS_P1;PMS_P2;Temp;Humidity;BMP_temperature;BMP_pressure;BME280_temperature;BME280_humidity;BME280_pressure;Samples;Min_cycle;Max_cycle;Signal;HPM_P1;HPM_P2
2022/11/20 00:01:15;;;;;;;7.05;2.55;;;-0.30;99.90;;;;;;4999143;28;20121;-72
2022/11/20 00:03:41;;;;;;;3.38;1.65;;;-0.20;99.90;;;;;;5000177;28;20045;-72
2022/11/20 00:06:09;;;;;;;3.85;2.00;;;-0.20;99.90;;;;;;5000705;28;20049;-72
2022/11/20 00:08:35;;;;;;;7.40;2.35;;;-0.20;99.90;;;;;;5003475;28;20034;-72
2022/11/20 00:11:10;;;;;;;5.55;1.95;;;-0.10;99.90;;;;;;5002381;28;20042;-72
2022/11/20 00:13:36;;;;;;;2.50;1.50;;;-0.10;99.90;;;;;;5001405;28;20121;-72
2022/11/20 00:16:04;;;;;;;4.40;2.28;;;-0.10;99.90;;;;;;5000830;28;20069;-72
2022/11/20 00:18:30;;;;;;;3.38;1.75;;;-0.10;99.90;;;;;;4984770;28;20050;-72
2022/11/20 00:21:07;;;;;;;6.00;2.40;;;-0.10;99.90;;;;;;4999897;28;20053;-72
2022/11/20 00:23:33;;;;;;;2.70;1.77;;;0.00;99.90;;;;;;4998721;28;20537;-72
2022/11/20 00:26:03;;;;;;;6.53;2.75;;;-0.10;99.90;;;;;;4999751;28;20042;-72
2022/11/20 00:28:29;;;;;;;7.10;2.30;;;-0.10;99.90;;;;;;5001589;28;20042;-72
2022/11/20 00:31:04;;;;;;;4.30;2.80;;;-0.10;99.90;;;;;;4999885;28;20041;-72
2022/11/20 00:33:30;;;;;;;6.40;2.60;;;-0.10;99.90;;;;;;5000885;28;20458;-72
2022/11/20 00:36:01;;;;;;;5.35;2.50;;;0.00;99.90;;;;;;5001180;28;20037;-72
2022/11/20 00:38:26;;;;;;;4.47;2.88;;;0.00;99.90;;;;;;4986138;28;20048;-72
2022/11/20 00:40:57;;;;;;;10.52;5.05;;;0.00;99.90;;;;;;4983959;28;20038;-72
2022/11/20 00:43:23;;;;;;;18.25;5.63;;;0.00;99.90;;;;;;4997473;28;20496;-72
2022/11/20 00:45:48;;;;;;;11.68;3.30;;;0.10;99.90;;;;;;4999005;28;20034;-72
2022/11/20 00:48:14;;;;;;;9.95;3.20;;;0.00;99.90;;;;;;4981932;28;20038;-72
2022/11/20 00:50:41;;;;;;;6.57;3.13;;;0.00;99.90;;;;;;4999774;28;20068;-72
2022/11/20 00:53:07;;;;;;;3.90;2.20;;;0.10;99.90;;;;;;4999574;28;20084;-72
2022/11/20 00:55:32;;;;;;;12.40;3.00;;;0.00;99.90;;;;;;4997571;28;20045;-72
2022/11/20 00:57:58;;;;;;;6.30;2.53;;;0.10;99.90;;;;;;4997209;28;20117;-72
2022/11/20 01:00:23;;;;;;;6.30;1.73;;;0.10;99.90;;;;;;5001371;28;20052;-72
2022/11/20 01:02:49;;;;;;;4.45;2.13;;;0.10;99.90;;;;;;4997418;28;20137;-72
2022/11/20 01:05:15;;;;;;;6.22;3.22;;;0.10;99.90;;;;;;4979741;28;20128;-72
2022/11/20 01:07:40;;;;;;;4.32;2.38;;;0.20;99.90;;;;;;5000952;28;20041;-72
2022/11/20 01:10:06;;;;;;;4.05;2.58;;;0.20;99.90;;;;;;5003482;28;20471;-72
2022/11/20 01:12:32;;;;;;;6.90;3.72;;;0.20;99.90;;;;;;5003187;28;20127;-72
2022/11/20 01:14:58;;;;;;;10.02;4.80;;;0.20;99.90;;;;;;4980350;28;20049;-72
2022/11/20 01:17:23;;;;;;;10.60;5.82;;;0.20;99.90;;;;;;4999478;28;20034;-72
2022/11/20 01:19:50;;;;;;;8.25;4.18;;;0.10;99.90;;;;;;4999513;28;20107;-72
2022/11/20 01:22:16;;;;;;;5.57;2.58;;;0.20;99.90;;;;;;4983562;28;20042;-72
2022/11/20 01:24:41;;;;;;;4.78;3.25;;;0.20;99.90;;;;;;5000603;28;20442;-72
2022/11/20 01:27:07;;;;;;;5.72;2.70;;;0.20;99.90;;;;;;4983039;28;20455;-72
2022/11/20 01:29:33;;;;;;;3.72;2.47;;;0.20;99.90;;;;;;5016589;28;20049;-72
2022/11/20 01:31:58;;;;;;;5.57;2.53;;;0.20;99.90;;;;;;5000414;28;20052;-72
2022/11/20 01:34:24;;;;;;;5.32;2.75;;;0.20;99.90;;;;;;5001931;28;20037;-72
2022/11/20 01:36:51;;;;;;;4.65;3.08;;;0.20;99.90;;;;;;5000195;28;20113;-72
2022/11/20 01:39:20;;;;;;;2.30;1.73;;;0.20;99.90;;;;;;5000060;28;20771;-72
2022/11/20 01:44:59;;;;;;;4.97;2.42;;;0.30;99.90;;;;;;4996484;28;20105;-72
2022/11/20 01:47:43;;;;;;;5.63;2.38;;;0.30;99.90;;;;;;4997256;28;20046;-72
2022/11/20 01:50:18;;;;;;;4.88;2.55;;;0.30;99.90;;;;;;4999860;28;20407;-72
2022/11/20 01:53:12;;;;;;;4.63;3.50;;;0.30;99.90;;;;;;4999353;28;20045;-72
2022/11/20 01:55:45;;;;;;;6.55;2.30;;;0.20;99.90;;;;;;4981352;28;20383;-72
2022/11/20 01:58:11;;;;;;;8.68;3.03;;;0.30;99.90;;;;;;4999154;28;20353;-72
2022/11/20 02:00:37;;;;;;;6.57;2.42;;;0.30;99.90;;;;;;4984155;28;20052;-72
2022/11/20 02:03:06;;;;;;;4.32;2.17;;;0.30;99.90;;;;;;4999719;28;20030;-72
2022/11/20 02:05:53;;;;;;;4.72;3.33;;;0.30;99.90;;;;;;4999305;28;20085;-72
2022/11/20 02:08:19;;;;;;;4.38;2.92;;;0.20;99.90;;;;;;5000789;28;21089;-72
2022/11/20 02:10:45;;;;;;;6.43;3.55;;;0.30;99.90;;;;;;4999139;28;20045;-72
2022/11/20 02:15:55;;;;;;;8.30;3.10;;;0.20;99.90;;;;;;5013522;28;20049;-72
2022/11/20 02:18:21;;;;;;;5.85;3.22;;;0.20;99.90;;;;;;4998572;28;20056;-72
2022/11/20 02:20:50;;;;;;;4.05;1.98;;;0.20;99.90;;;;;;4996951;28;20119;-72
2022/11/20 02:23:39;;;;;;;5.78;3.35;;;0.30;99.90;;;;;;4997825;28;20605;-72
2022/11/20 02:26:10;;;;;;;7.63;3.35;;;0.30;99.90;;;;;;4998001;28;20065;-72
2022/11/20 02:28:36;;;;;;;6.72;3.15;;;0.30;99.90;;;;;;4998035;28;20047;-72
2022/11/20 02:31:02;;;;;;;10.93;3.17;;;0.40;99.90;;;;;;4998809;28;20098;-72
2022/11/20 02:33:27;;;;;;;4.20;2.00;;;0.40;99.90;;;;;;4997335;28;20523;-72
2022/11/20 02:35:53;;;;;;;6.90;4.07;;;0.40;99.90;;;;;;4996058;28;20133;-72
2022/11/20 02:38:19;;;;;;;4.88;3.10;;;0.40;99.90;;;;;;4998486;28;20045;-72
2022/11/20 02:40:45;;;;;;;6.18;3.65;;;0.40;99.90;;;;;;4998592;28;20042;-72
2022/11/20 02:43:10;;;;;;;8.07;3.72;;;0.40;99.90;;;;;;4996724;28;20052;-72
2022/11/20 02:45:36;;;;;;;7.15;4.57;;;0.40;99.90;;;;;;4998264;28;20446;-72
2022/11/20 02:48:02;;;;;;;7.78;4.05;;;0.40;99.90;;;;;;5014450;28;20034;-72
2022/11/20 02:50:27;;;;;;;4.03;3.13;;;0.40;99.90;;;;;;4998686;28;20045;-72
2022/11/20 02:52:53;;;;;;;6.95;3.55;;;0.40;99.90;;;;;;4999459;28;20097;-72
2022/11/20 02:55:18;;;;;;;9.25;3.33;;;0.40;99.90;;;;;;5014126;28;20513;-72
2022/11/20 02:57:44;;;;;;;4.95;2.50;;;0.40;99.90;;;;;;5001221;28;20061;-72
2022/11/20 03:00:10;;;;;;;5.75;3.20;;;0.40;99.90;;;;;;5003486;28;20048;-72
2022/11/20 03:02:36;;;;;;;6.28;2.90;;;0.50;99.90;;;;;;5002802;28;20454;-72
2022/11/20 03:05:02;;;;;;;6.32;2.08;;;0.50;99.90;;;;;;5003305;28;21448;-72
2022/11/20 03:07:28;;;;;;;9.40;4.30;;;0.50;99.90;;;;;;5004545;28;20038;-72
2022/11/20 03:09:53;;;;;;;3.38;2.22;;;0.50;99.90;;;;;;5002464;28;20080;-72
2022/11/20 03:12:19;;;;;;;4.72;2.50;;;0.50;99.90;;;;;;5003751;28;20062;-72
2022/11/20 03:14:44;;;;;;;9.57;3.72;;;0.60;99.90;;;;;;5002401;28;20775;-72
2022/11/20 03:17:11;;;;;;;7.88;3.17;;;0.60;99.90;;;;;;5000263;28;20588;-72
2022/11/20 03:19:36;;;;;;;12.10;2.90;;;0.60;99.90;;;;;;4997632;28;20049;-72
2022/11/20 03:22:02;;;;;;;7.80;4.00;;;0.60;99.90;;;;;;5001283;28;20546;-72
2022/11/20 03:24:27;;;;;;;8.35;3.28;;;0.60;99.90;;;;;;5003623;28;20112;-72
2022/11/20 03:26:53;;;;;;;6.53;3.15;;;0.60;99.90;;;;;;5002330;28;20487;-72
2022/11/20 03:29:18;;;;;;;5.95;3.38;;;0.60;99.90;;;;;;5000269;28;20344;-72
2022/11/20 03:31:44;;;;;;;5.28;2.78;;;0.50;99.90;;;;;;5002496;28;20061;-72
2022/11/20 03:34:11;;;;;;;6.72;2.85;;;0.50;99.90;;;;;;5006346;28;20074;-72
2022/11/20 03:36:39;;;;;;;9.10;3.40;;;0.60;99.90;;;;;;4985905;28;20045;-72
2022/11/20 03:39:05;;;;;;;4.07;2.92;;;0.60;99.90;;;;;;4971822;28;20030;-72
2022/11/20 03:41:35;;;;;;;7.35;3.65;;;0.60;99.90;;;;;;4998040;28;20450;-72
2022/11/20 03:44:04;;;;;;;6.20;2.95;;;0.60;99.90;;;;;;5001352;28;20064;-72
2022/11/20 03:46:30;;;;;;;7.90;4.07;;;0.60;99.90;;;;;;5002929;28;20133;-72
2022/11/20 03:48:56;;;;;;;5.13;2.63;;;0.70;99.90;;;;;;5000189;28;20404;-72
2022/11/20 03:51:24;;;;;;;7.22;2.97;;;0.60;99.90;;;;;;5017545;28;20044;-72
2022/11/20 03:53:52;;;;;;;5.55;3.22;;;0.60;99.90;;;;;;5002875;28;20495;-72
2022/11/20 03:56:22;;;;;;;7.57;4.28;;;0.70;99.90;;;;;;5003897;28;20125;-72
2022/11/20 03:58:48;;;;;;;9.52;3.88;;;0.60;99.90;;;;;;5014125;28;20383;-72
2022/11/20 04:01:16;;;;;;;5.88;3.15;;;0.70;99.90;;;;;;5002199;28;20037;-72
2022/11/20 04:03:43;;;;;;;4.05;3.47;;;0.70;99.90;;;;;;5000479;28;20045;-72
2022/11/20 04:06:14;;;;;;;8.25;3.38;;;0.70;99.90;;;;;;5001742;28;20053;-72
2022/11/20 04:08:41;;;;;;;5.57;2.72;;;0.80;99.90;;;;;;5021206;28;20080;-72
2022/11/20 04:11:22;;;;;;;12.85;3.10;;;0.80;99.90;;;;;;4985881;28;20030;-72
2022/11/20 04:13:50;;;;;;;7.07;3.80;;;0.80;99.90;;;;;;4999958;28;20084;-72
2022/11/20 04:16:16;;;;;;;8.55;3.33;;;0.80;99.90;;;;;;5001645;28;20160;-72
2022/11/20 04:18:43;;;;;;;4.82;2.67;;;0.80;99.90;;;;;;4999692;28;20054;-72
2022/11/20 04:21:09;;;;;;;5.45;2.88;;;0.80;99.90;;;;;;4999764;28;20037;-72
2022/11/20 04:23:35;;;;;;;8.18;3.45;;;0.80;99.90;;;;;;5001055;28;20045;-72
2022/11/20 04:26:09;;;;;;;7.72;3.20;;;0.80;99.90;;;;;;4983846;28;20038;-72
2022/11/20 04:28:35;;;;;;;7.03;3.97;;;0.80;99.90;;;;;;5001353;28;20116;-72
2022/11/20 04:31:11;;;;;;;18.88;3.85;;;0.80;99.90;;;;;;5001054;28;20285;-72
2022/11/20 04:33:37;;;;;;;3.50;2.42;;;0.80;99.90;;;;;;4998944;28;20053;-72
2022/11/20 04:36:10;;;;;;;5.55;2.50;;;0.80;99.90;;;;;;5001621;28;20647;-72
2022/11/20 04:38:36;;;;;;;7.25;3.25;;;0.70;99.90;;;;;;5016285;28;20052;-72
2022/11/20 04:41:03;;;;;;;4.45;2.97;;;0.70;99.90;;;;;;4998686;28;20042;-72
2022/11/20 04:43:29;;;;;;;4.30;2.47;;;0.80;99.90;;;;;;4981694;28;20045;-72
2022/11/20 04:45:57;;;;;;;5.43;2.65;;;0.80;99.90;;;;;;4999978;28;20037;-72
2022/11/20 04:48:23;;;;;;;7.05;3.45;;;0.80;99.90;;;;;;4982996;28;20046;-72
2022/11/20 04:50:48;;;;;;;6.78;3.20;;;0.80;99.90;;;;;;4984250;28;20074;-72
2022/11/20 04:53:14;;;;;;;5.88;3.30;;;0.80;99.90;;;;;;5005059;28;20626;-72
2022/11/20 04:55:39;;;;;;;6.70;3.65;;;0.90;99.90;;;;;;5001393;28;20067;-72
2022/11/20 04:58:05;;;;;;;4.95;2.67;;;0.80;99.90;;;;;;5000288;28;20108;-72
2022/11/20 05:00:31;;;;;;;5.45;3.05;;;0.90;99.90;;;;;;4981038;28;20119;-72
2022/11/20 05:02:56;;;;;;;5.63;2.97;;;0.90;99.90;;;;;;5000239;28;20407;-72
2022/11/20 05:05:22;;;;;;;7.43;3.22;;;0.90;99.90;;;;;;4983335;28;20403;-72
2022/11/20 05:07:48;;;;;;;3.35;2.55;;;0.90;99.90;;;;;;4998363;28;20180;-72
2022/11/20 05:10:14;;;;;;;5.20;3.05;;;0.90;99.90;;;;;;5000163;28;20037;-72
2022/11/20 05:12:39;;;;;;;6.20;3.65;;;0.90;99.90;;;;;;4998239;28;20140;-72
2022/11/20 05:15:05;;;;;;;6.43;2.97;;;0.90;99.90;;;;;;5002552;28;20416;-72
2022/11/20 05:17:31;;;;;;;10.13;3.45;;;0.90;99.90;;;;;;5002993;28;20594;-72
2022/11/20 05:19:57;;;;;;;10.30;3.80;;;0.80;99.90;;;;;;4995985;28;20061;-72
2022/11/20 05:22:22;;;;;;;6.57;3.47;;;0.80;99.90;;;;;;4999091;28;20042;-72
2022/11/20 05:24:48;;;;;;;5.30;4.07;;;0.80;99.90;;;;;;4998439;28;20050;-72
2022/11/20 05:27:14;;;;;;;6.05;3.28;;;0.80;99.90;;;;;;5000261;28;20246;-72
2022/11/20 05:29:39;;;;;;;5.78;3.67;;;0.80;99.90;;;;;;4999268;28;20068;-72
2022/11/20 05:32:07;;;;;;;5.30;2.83;;;0.90;99.90;;;;;;4999123;28;20034;-72
2022/11/20 05:34:33;;;;;;;7.93;3.40;;;0.90;99.90;;;;;;4997419;28;20640;-72
2022/11/20 05:36:58;;;;;;;6.10;3.58;;;0.90;99.90;;;;;;4981576;28;20053;-72
2022/11/20 05:39:24;;;;;;;7.10;3.38;;;0.90;99.90;;;;;;4997454;28;20042;-72
2022/11/20 05:42:29;;;;;;;5.40;3.08;;;0.90;99.90;;;;;;4995707;28;20038;-72
2022/11/20 05:44:35;;;;;;;4.40;2.95;;;1.00;99.90;;;;;;4998191;28;20116;-72
2022/11/20 05:47:00;;;;;;;5.28;2.63;;;1.00;99.90;;;;;;5005818;28;20498;-72
2022/11/20 05:49:26;;;;;;;6.55;3.00;;;1.00;99.90;;;;;;4997963;28;20116;-72
2022/11/20 05:51:51;;;;;;;3.97;2.72;;;1.00;99.90;;;;;;4999330;28;20127;-72
2022/11/20 05:54:17;;;;;;;4.55;2.30;;;1.00;99.90;;;;;;4997442;28;20038;-72
2022/11/20 05:56:42;;;;;;;5.22;2.75;;;1.00;99.90;;;;;;4998874;28;20041;-72
2022/11/20 05:59:08;;;;;;;7.40;3.70;;;1.10;99.90;;;;;;5002650;28;20041;-72
2022/11/20 06:01:35;;;;;;;5.72;2.25;;;1.10;99.90;;;;;;4999155;28;20498;-72
2022/11/20 06:04:01;;;;;;;6.28;3.42;;;1.00;99.90;;;;;;4999119;28;20637;-72
2022/11/20 06:06:27;;;;;;;6.13;3.15;;;1.00;99.90;;;;;;4998942;28;20185;-72
2022/11/20 06:08:53;;;;;;;5.65;3.70;;;1.00;99.90;;;;;;5001091;28;20041;-72
2022/11/20 06:11:18;;;;;;;5.10;3.30;;;0.90;99.90;;;;;;4982498;28;20034;-72
2022/11/20 06:13:44;;;;;;;4.85;3.08;;;0.90;99.90;;;;;;4980949;28;20461;-72
2022/11/20 06:16:12;;;;;;;5.47;3.58;;;0.90;99.90;;;;;;5000792;28;20164;-72
2022/11/20 06:18:38;;;;;;;7.00;2.70;;;0.90;99.90;;;;;;4998667;28;20149;-72
2022/11/20 06:21:10;;;;;;;7.72;3.58;;;0.90;99.90;;;;;;4998401;28;20063;-72
2022/11/20 06:23:36;;;;;;;5.72;2.35;;;0.90;99.90;;;;;;4998540;28;20479;-72
2022/11/20 06:26:11;;;;;;;7.57;3.53;;;0.80;99.90;;;;;;4999366;28;20042;-72
2022/11/20 06:28:38;;;;;;;5.15;2.30;;;0.80;99.90;;;;;;4980855;28;20470;-72
2022/11/20 06:31:04;;;;;;;4.47;3.17;;;0.90;99.90;;;;;;4997886;28;20117;-72
2022/11/20 06:33:30;;;;;;;7.28;3.45;;;0.90;99.90;;;;;;4998840;28;20062;-72
2022/11/20 06:36:00;;;;;;;6.10;3.90;;;0.90;99.90;;;;;;5001061;28;20142;-72
2022/11/20 06:38:27;;;;;;;5.32;2.95;;;1.00;99.90;;;;;;4996095;28;20566;-72
2022/11/20 06:40:52;;;;;;;6.78;3.50;;;0.90;99.90;;;;;;4983731;28;20049;-72
2022/11/20 06:43:18;;;;;;;3.97;2.65;;;0.90;99.90;;;;;;4996686;28;20041;-72
2022/11/20 06:45:43;;;;;;;5.32;2.92;;;0.90;99.90;;;;;;4994191;28;20084;-72
2022/11/20 06:48:09;;;;;;;4.75;2.40;;;0.90;99.90;;;;;;4999467;28;20077;-72
2022/11/20 06:50:36;;;;;;;8.25;3.15;;;0.90;99.90;;;;;;5000136;28;20034;-72
2022/11/20 06:53:03;;;;;;;6.07;3.60;;;0.90;99.90;;;;;;4980419;28;20499;-72
2022/11/20 06:55:30;;;;;;;5.78;3.25;;;0.90;99.90;;;;;;4998765;28;20030;-72
2022/11/20 06:57:55;;;;;;;6.65;4.07;;;0.90;99.90;;;;;;4994257;28;20072;-72
2022/11/20 07:00:21;;;;;;;5.20;3.08;;;0.90;99.90;;;;;;4997992;28;20503;-72
2022/11/20 07:02:46;;;;;;;6.57;3.33;;;0.90;99.90;;;;;;4994396;28;20078;-72
2022/11/20 07:05:12;;;;;;;6.93;3.55;;;0.90;99.90;;;;;;4997565;28;20092;-72
2022/11/20 07:07:38;;;;;;;9.63;4.22;;;0.90;99.90;;;;;;4998426;28;20038;-72
2022/11/20 07:10:04;;;;;;;5.45;2.80;;;0.90;99.90;;;;;;4996159;28;20056;-72
2022/11/20 07:12:30;;;;;;;6.75;3.50;;;0.90;99.90;;;;;;4997224;28;20225;-72
2022/11/20 07:14:56;;;;;;;5.72;2.95;;;0.90;99.90;;;;;;5000899;28;20467;-72
2022/11/20 07:17:21;;;;;;;6.40;4.20;;;1.00;99.90;;;;;;4997009;28;20507;-72
2022/11/20 07:19:47;;;;;;;7.38;2.75;;;0.90;99.90;;;;;;4997981;28;20053;-72
2022/11/20 07:22:13;;;;;;;5.03;3.00;;;1.00;99.90;;;;;;4998078;28;20496;-72
2022/11/20 07:24:38;;;;;;;6.00;2.80;;;1.00;99.90;;;;;;4980843;28;20100;-73
2022/11/20 07:27:05;;;;;;;7.55;3.42;;;1.10;99.90;;;;;;4999718;28;20048;-72
2022/11/20 07:29:30;;;;;;;5.47;2.78;;;1.10;99.90;;;;;;5010791;28;20551;-72
2022/11/20 07:31:56;;;;;;;6.75;3.72;;;1.10;99.90;;;;;;5000036;28;20038;-72
2022/11/20 07:34:22;;;;;;;5.30;3.10;;;1.10;99.90;;;;;;4997703;28;20037;-72
2022/11/20 07:36:48;;;;;;;8.05;4.15;;;1.10;99.90;;;;;;4997864;28;20033;-72
2022/11/20 07:39:13;;;;;;;9.85;3.65;;;1.10;99.90;;;;;;4998900;28;20088;-72
2022/11/20 07:41:39;;;;;;;9.02;3.88;;;1.10;99.90;;;;;;4999879;28;20038;-72
2022/11/20 07:44:05;;;;;;;6.47;3.80;;;1.10;99.90;;;;;;5002139;28;20048;-72
2022/11/20 07:46:31;;;;;;;7.57;3.22;;;1.20;99.90;;;;;;5004353;28;20587;-72
2022/11/20 07:48:56;;;;;;;8.23;4.75;;;1.20;99.90;;;;;;5001302;28;20041;-72
2022/11/20 07:51:22;;;;;;;7.30;3.75;;;1.20;99.90;;;;;;4987239;28;20036;-72
2022/11/20 07:53:51;;;;;;;8.50;4.00;;;1.20;99.90;;;;;;5001608;28;20045;-72
2022/11/20 07:56:16;;;;;;;10.27;2.83;;;1.20;99.90;;;;;;5002860;28;20038;-73
2022/11/20 07:58:42;;;;;;;5.80;2.92;;;1.20;99.90;;;;;;5003671;28;20041;-73
2022/11/20 08:01:08;;;;;;;6.40;3.25;;;1.20;99.90;;;;;;4999052;28;20129;-72
2022/11/20 08:03:34;;;;;;;4.25;2.92;;;1.30;99.90;;;;;;4996647;28;20042;-72
2022/11/20 08:06:00;;;;;;;6.10;3.17;;;1.30;99.90;;;;;;5016804;28;20038;-72
2022/11/20 08:08:27;;;;;;;5.32;3.83;;;1.30;99.90;;;;;;4998757;28;20034;-72
2022/11/20 08:14:11;;;;;;;12.82;3.80;;;1.30;99.90;;;;;;4999159;28;20045;-72
2022/11/20 08:16:22;;;;;;;5.78;3.50;;;1.40;99.90;;;;;;4999462;28;20049;-72
2022/11/20 08:18:48;;;;;;;6.30;3.17;;;1.40;99.90;;;;;;4993286;28;20550;-72
2022/11/20 08:21:13;;;;;;;6.72;3.53;;;1.40;99.90;;;;;;5001366;28;20054;-72
2022/11/20 08:23:39;;;;;;;7.53;2.88;;;1.40;99.90;;;;;;5002327;28;20961;-72
2022/11/20 08:26:05;;;;;;;8.65;3.40;;;1.40;99.90;;;;;;4998579;28;20058;-72
2022/11/20 08:28:30;;;;;;;5.50;3.65;;;1.40;99.90;;;;;;4999323;28;20120;-72
2022/11/20 08:31:00;;;;;;;5.32;3.15;;;1.50;99.90;;;;;;5001109;28;20065;-72
2022/11/20 08:33:26;;;;;;;8.63;2.85;;;1.50;99.90;;;;;;4995480;28;20490;-72
2022/11/20 08:35:52;;;;;;;5.47;3.03;;;1.50;99.90;;;;;;5000204;28;20050;-72
2022/11/20 08:38:17;;;;;;;5.82;3.03;;;1.50;99.90;;;;;;5017269;28;20042;-72
2022/11/20 08:41:23;;;;;;;5.85;3.47;;;1.40;99.90;;;;;;4983331;28;20399;-73
2022/11/20 08:43:31;;;;;;;6.25;2.97;;;1.40;99.90;;;;;;4999847;28;20054;-72
2022/11/20 08:45:57;;;;;;;5.50;2.50;;;1.40;99.90;;;;;;4998149;28;20040;-72
2022/11/20 08:48:23;;;;;;;5.43;2.70;;;1.40;99.90;;;;;;4979180;28;20416;-73
2022/11/20 08:50:48;;;;;;;5.55;3.47;;;1.40;99.90;;;;;;4998071;28;20030;-72
2022/11/20 08:53:14;;;;;;;4.63;2.30;;;1.50;99.90;;;;;;4999533;28;20503;-72
2022/11/20 08:55:40;;;;;;;5.32;2.70;;;1.50;99.90;;;;;;4981491;28;20073;-72
2022/11/20 08:58:06;;;;;;;5.10;3.25;;;1.50;99.90;;;;;;5018716;28;20042;-72
2022/11/20 09:00:32;;;;;;;4.65;2.58;;;1.50;99.90;;;;;;5000241;28;20057;-73
2022/11/20 09:02:59;;;;;;;7.05;4.28;;;1.60;99.90;;;;;;4999198;28;20538;-72
2022/11/20 09:05:25;;;;;;;13.40;7.05;;;1.60;99.90;;;;;;4998756;28;20042;-72
2022/11/20 09:07:50;;;;;;;4.28;3.40;;;1.60;99.90;;;;;;5001078;28;20037;-72
2022/11/20 09:10:16;;;;;;;6.00;3.15;;;1.60;99.90;;;;;;4998861;28;20030;-72
2022/11/20 09:12:41;;;;;;;3.97;2.70;;;1.60;99.90;;;;;;4998406;28;20068;-72
2022/11/20 09:15:07;;;;;;;9.52;4.13;;;1.70;99.90;;;;;;4999217;28;20514;-72
2022/11/20 09:17:33;;;;;;;3.65;2.67;;;1.70;99.90;;;;;;5001101;28;20054;-72
2022/11/20 09:19:58;;;;;;;9.38;4.68;;;1.70;99.90;;;;;;4982315;28;20534;-74
2022/11/20 09:22:24;;;;;;;11.18;6.70;;;1.70;99.90;;;;;;4997034;28;20081;-72
2022/11/20 09:24:49;;;;;;;9.35;5.50;;;1.70;99.90;;;;;;4999999;28;20518;-72
2022/11/20 09:27:20;;;;;;;5.70;3.47;;;1.70;99.90;;;;;;4998199;28;20117;-72
2022/11/20 09:29:46;;;;;;;9.88;6.57;;;1.70;99.90;;;;;;4999653;28;20629;-72
2022/11/20 09:32:11;;;;;;;8.25;3.47;;;1.70;99.90;;;;;;4995371;28;20037;-72
2022/11/20 09:34:37;;;;;;;6.45;3.90;;;1.80;99.90;;;;;;4997917;28;20496;-72
2022/11/20 09:37:02;;;;;;;8.15;3.65;;;1.80;99.90;;;;;;4996597;28;20042;-72
2022/11/20 09:39:28;;;;;;;6.97;3.40;;;1.90;99.90;;;;;;5015152;28;20484;-72
2022/11/20 09:42:17;;;;;;;6.50;3.92;;;1.90;99.90;;;;;;4999690;28;20037;-72
2022/11/20 09:45:01;;;;;;;8.30;3.00;;;2.00;99.90;;;;;;4997126;28;20053;-72
2022/11/20 09:47:54;;;;;;;4.03;2.92;;;2.00;99.90;;;;;;4999781;28;20041;-72
2022/11/20 09:50:20;;;;;;;6.72;2.90;;;1.90;99.90;;;;;;5002396;28;20245;-73
2022/11/20 09:53:05;;;;;;;4.82;2.22;;;2.00;99.90;;;;;;4982858;28;20580;-72
2022/11/20 09:55:31;;;;;;;6.75;3.78;;;1.90;99.90;;;;;;4998964;28;20542;-72
2022/11/20 09:57:59;;;;;;;6.00;3.53;;;2.00;99.90;;;;;;4984277;28;20056;-72
2022/11/20 10:00:26;;;;;;;8.02;3.58;;;2.00;99.90;;;;;;4995879;28;20136;-73
2022/11/20 10:03:11;;;;;;;8.98;4.55;;;2.00;99.90;;;;;;5000633;28;20048;-72
2022/11/20 10:05:54;;;;;;;8.63;4.55;;;2.00;99.90;;;;;;4996108;28;20034;-72
2022/11/20 10:08:24;;;;;;;6.18;2.65;;;2.00;99.90;;;;;;5001047;28;20480;-72
2022/11/20 10:10:55;;;;;;;4.88;2.55;;;2.10;99.90;;;;;;4996080;28;20585;-72
2022/11/20 10:13:30;;;;;;;7.95;3.50;;;2.10;99.90;;;;;;4994711;28;20121;-72
2022/11/20 10:16:18;;;;;;;4.38;3.10;;;2.20;99.90;;;;;;4996952;28;20057;-72
2022/11/20 10:19:10;;;;;;;4.15;1.98;;;2.20;99.90;;;;;;4998626;28;20133;-73
2022/11/20 10:21:41;;;;;;;9.98;3.25;;;2.20;99.90;;;;;;4998630;28;20077;-72
2022/11/20 10:24:06;;;;;;;8.43;3.30;;;2.30;99.90;;;;;;4993214;28;20045;-72
2022/11/20 10:26:50;;;;;;;7.03;2.85;;;2.20;99.90;;;;;;4978817;28;20046;-72
2022/11/20 10:29:18;;;;;;;4.45;2.50;;;2.30;99.90;;;;;;4996879;28;20217;-72
2022/11/20 10:31:49;;;;;;;4.90;2.85;;;2.30;99.90;;;;;;4998046;28;20052;-72
2022/11/20 10:34:42;;;;;;;6.05;2.90;;;2.40;99.90;;;;;;4998783;28;20037;-73
2022/11/20 10:37:25;;;;;;;4.13;2.53;;;2.40;99.90;;;;;;4995307;28;20100;-72
2022/11/20 10:39:54;;;;;;;4.53;2.70;;;2.40;99.90;;;;;;4996268;28;20030;-72
2022/11/20 10:42:31;;;;;;;7.32;2.55;;;2.40;99.90;;;;;;4997933;28;20034;-72
2022/11/20 10:45:21;;;;;;;4.95;3.05;;;2.50;99.90;;;;;;4997534;28;20456;-72
2022/11/20 10:47:47;;;;;;;5.63;2.15;;;2.50;99.90;;;;;;4997885;28;20499;-73
2022/11/20 10:50:19;;;;;;;8.10;3.95;;;2.50;99.90;;;;;;4997498;28;20542;-72
2022/11/20 10:53:06;;;;;;;6.30;3.03;;;2.60;99.90;;;;;;4999115;28;20137;-72
2022/11/20 10:55:46;;;;;;;4.03;2.45;;;2.60;99.90;;;;;;5000161;28;20060;-72
2022/11/20 10:58:52;;;;;;;7.38;3.03;;;2.60;99.90;;;;;;5015786;28;20041;-72
2022/11/20 11:01:23;;;;;;;5.60;3.60;;;2.60;99.90;;;;;;5000650;28;20049;-72
2022/11/20 11:03:53;;;;;;;5.28;3.20;;;2.70;99.90;;;;;;5014074;28;20546;-73
2022/11/20 11:06:40;;;;;;;6.03;3.35;;;2.70;99.90;;;;;;4977996;28;20527;-73
2022/11/20 11:09:15;;;;;;;4.90;3.03;;;2.70;99.90;;;;;;5001118;28;20088;-72
2022/11/20 11:11:40;;;;;;;5.03;3.33;;;2.60;99.90;;;;;;4999552;28;20037;-72
2022/11/20 11:14:08;;;;;;;8.70;3.25;;;2.70;99.90;;;;;;4980775;28;20038;-72
2022/11/20 11:16:34;;;;;;;8.23;3.70;;;2.70;99.90;;;;;;4997935;28;20053;-73
2022/11/20 11:19:11;;;;;;;5.28;2.60;;;2.70;99.90;;;;;;5000775;28;20060;-72
2022/11/20 11:21:43;;;;;;;5.88;3.22;;;2.70;99.90;;;;;;5004360;28;20045;-73
2022/11/20 11:24:29;;;;;;;7.20;2.63;;;2.80;99.90;;;;;;5020400;28;20054;-72
2022/11/20 11:27:10;;;;;;;5.45;2.88;;;2.80;99.90;;;;;;4992292;28;20042;-72
2022/11/20 11:29:35;;;;;;;9.10;3.35;;;2.80;99.90;;;;;;4982573;28;20049;-72
2022/11/20 11:32:17;;;;;;;3.95;2.25;;;2.80;99.90;;;;;;4986243;28;20045;-73
2022/11/20 11:34:43;;;;;;;7.65;3.75;;;2.80;99.90;;;;;;5002578;28;20384;-73
2022/11/20 11:37:19;;;;;;;4.55;2.35;;;2.90;99.90;;;;;;5001904;28;20095;-72
2022/11/20 11:39:46;;;;;;;;;;;2.80;99.90;;;;;;5001263;28;20045;-72
2022/11/20 11:42:15;;;;;;;9.02;2.78;;;2.90;99.90;;;;;;5016411;28;19917;-72
2022/11/20 11:47:51;;;;;;;6.25;2.83;;;2.90;99.90;;;;;;5000283;28;20116;-72
2022/11/20 11:50:28;;;;;;;4.97;3.00;;;2.90;99.90;;;;;;5001549;28;20415;-72
2022/11/20 11:53:14;;;;;;;7.65;3.08;;;3.00;99.90;;;;;;5000768;28;20062;-72
2022/11/20 11:55:54;;;;;;;6.55;2.92;;;3.00;99.90;;;;;;4983851;28;20096;-73
2022/11/20 11:58:34;;;;;;;4.28;2.10;;;3.00;99.90;;;;;;5001454;28;20491;-72
2022/11/20 12:01:27;;;;;;;3.40;2.20;;;3.00;99.90;;;;;;5002881;28;20056;-73
2022/11/20 12:04:24;;;;;;;5.25;2.30;;;3.00;99.90;;;;;;5018675;28;20175;-72
2022/11/20 12:07:03;;;;;;;4.18;2.70;;;3.00;99.90;;;;;;4979694;28;20034;-72
2022/11/20 12:09:48;;;;;;;5.35;2.42;;;3.00;99.90;;;;;;5000988;28;20077;-72
2022/11/20 12:12:19;;;;;;;7.00;3.15;;;3.10;99.90;;;;;;4998239;28;20084;-72
2022/11/20 12:14:50;;;;;;;4.78;2.72;;;3.10;99.90;;;;;;4994558;28;20118;-72
2022/11/20 12:17:17;;;;;;;6.35;2.60;;;3.10;99.90;;;;;;4984538;28;20050;-72
2022/11/20 12:19:44;;;;;;;6.57;3.58;;;3.20;99.90;;;;;;5005819;28;20053;-72
2022/11/20 12:22:43;;;;;;;4.65;2.38;;;3.20;99.90;;;;;;4989064;28;20030;-72
2022/11/20 12:25:36;;;;;;;6.05;2.67;;;3.30;99.90;;;;;;5005927;28;20415;-72
2022/11/20 12:28:36;;;;;;;4.57;2.20;;;3.40;99.90;;;;;;5002578;28;20041;-72
2022/11/20 12:31:24;;;;;;;5.95;2.60;;;3.40;99.90;;;;;;4985448;28;20248;-72
2022/11/20 12:34:03;;;;;;;5.53;2.20;;;3.50;99.90;;;;;;5006100;28;20099;-72
2022/11/20 12:36:52;;;;;;;4.53;2.40;;;3.50;99.90;;;;;;5006443;28;20594;-72
2022/11/20 12:39:39;;;;;;;4.15;2.17;;;3.60;99.90;;;;;;4965028;28;20137;-72
2022/11/20 12:45:11;;;;;;;3.50;1.48;;;3.50;99.90;;;;;;5005209;28;20160;-72
2022/11/20 12:47:36;;;;;;;3.10;2.22;;;3.50;99.90;;;;;;5005063;28;20053;-72
2022/11/20 12:50:14;;;;;;;6.28;2.50;;;3.50;99.90;;;;;;5022537;28;20038;-72
2022/11/20 12:53:08;;;;;;;4.20;1.85;;;3.40;99.90;;;;;;5005748;28;20689;-72
2022/11/20 12:55:43;;;;;;;4.47;2.30;;;3.50;99.90;;;;;;5003458;28;20045;-72
2022/11/20 12:58:25;;;;;;;4.85;2.17;;;3.50;99.90;;;;;;4981832;28;20120;-72
2022/11/20 13:01:04;;;;;;;3.53;1.13;;;3.50;99.90;;;;;;5005493;28;20043;-72
2022/11/20 13:03:44;;;;;;;6.35;2.05;;;3.50;99.90;;;;;;4989407;28;20037;-72
2022/11/20 13:06:18;;;;;;;4.03;1.90;;;3.60;99.90;;;;;;4989076;28;20069;-72
2022/11/20 13:08:53;;;;;;;4.78;2.33;;;3.60;99.90;;;;;;5001937;28;20037;-73
2022/11/20 13:11:32;;;;;;;4.60;2.30;;;3.60;99.90;;;;;;4997995;28;20049;-74
2022/11/20 13:14:14;;;;;;;4.30;1.98;;;3.60;99.90;;;;;;4999254;28;20038;-72
2022/11/20 13:16:58;;;;;;;4.97;2.17;;;3.60;99.90;;;;;;5002569;28;20124;-72
2022/11/20 13:19:24;;;;;;;3.92;1.88;;;3.60;99.90;;;;;;5002805;28;20046;-72
2022/11/20 13:21:50;;;;;;;4.97;1.52;;;3.50;99.90;;;;;;5003659;28;20511;-72
2022/11/20 13:24:19;;;;;;;4.05;2.30;;;3.50;99.90;;;;;;5004125;28;20441;-72